createdAt,value
2024-01-15T00:00:05.589Z,13.60
2024-01-15T00:02:38.498Z,15.73
2024-01-15T00:05:05.833Z,13.13
2024-01-15T00:07:33.019Z,16.90
2024-01-15T00:10:00.412Z,16.13
2024-01-15T00:12:27.758Z,14.57
2024-01-15T00:14:55.351Z,16.67
2024-01-15T00:17:22.649Z,13.73
2024-01-15T00:19:50.082Z,17.27
2024-01-15T00:22:17.374Z,12.07
2024-01-15T00:24:44.669Z,16.57
2024-01-15T00:27:11.998Z,13.73
2024-01-15T00:29:39.343Z,13.13
2024-01-15T00:32:06.945Z,16.70
2024-01-15T00:34:34.393Z,15.97
2024-01-15T00:37:01.788Z,18.37
2024-01-15T00:39:29.033Z,18.83
2024-01-15T00:41:56.340Z,17.13
2024-01-15T00:44:23.545Z,16.93
2024-01-15T00:46:50.833Z,19.47
2024-01-15T00:49:18.323Z,15.67
2024-01-15T00:51:45.751Z,17.93
2024-01-15T00:54:13.054Z,15.00
2024-01-15T00:56:40.619Z,17.80
2024-01-15T00:59:07.812Z,15.80
2024-01-15T01:01:34.977Z,16.10
2024-01-15T01:04:02.524Z,17.47
2024-01-15T01:06:31.973Z,14.23
2024-01-15T01:09:00.722Z,15.53
2024-01-15T01:11:28.058Z,13.93
2024-01-15T01:13:55.281Z,12.67
2024-01-15T01:16:22.455Z,11.07
2024-01-15T01:18:49.834Z,20.03
2024-01-15T01:21:18.126Z,17.07
2024-01-15T01:23:45.561Z,16.50
2024-01-15T01:26:17.675Z,18.03
2024-01-15T01:28:45.109Z,13.40
2024-01-15T01:31:12.428Z,16.87
2024-01-15T01:33:41.377Z,16.13
2024-01-15T01:36:10.386Z,17.90
2024-01-15T01:38:38.857Z,17.13
2024-01-15T01:41:06.161Z,15.87
2024-01-15T01:43:33.388Z,17.17
2024-01-15T01:46:02.544Z,14.03
2024-01-15T01:48:31.361Z,16.73
2024-01-15T01:51:01.140Z,17.30
2024-01-15T01:53:30.872Z,16.30
2024-01-15T01:55:58.991Z,17.17
2024-01-15T01:58:27.117Z,17.47
2024-01-15T02:00:55.451Z,15.47
2024-01-15T02:03:23.212Z,16.20
2024-01-15T02:05:51.066Z,21.70
2024-01-15T02:08:18.547Z,18.23
2024-01-15T02:10:45.916Z,16.53
2024-01-15T02:13:13.220Z,20.23
2024-01-15T02:15:41.198Z,16.23
2024-01-15T02:18:09.750Z,19.90
2024-01-15T02:20:37.918Z,15.77
2024-01-15T02:23:16.560Z,19.07
2024-01-15T02:25:45.774Z,15.47
2024-01-15T02:28:14.891Z,17.67
2024-01-15T02:30:43.777Z,17.47
2024-01-15T02:33:12.832Z,19.00
2024-01-15T02:35:40.229Z,17.80
2024-01-15T02:38:07.944Z,16.97
2024-01-15T02:40:36.068Z,15.83
2024-01-15T02:43:03.381Z,19.63
2024-01-15T02:45:31.034Z,14.57
2024-01-15T02:47:58.402Z,16.60
2024-01-15T02:50:25.735Z,19.17
2024-01-15T02:52:53.474Z,20.00
2024-01-15T02:55:20.998Z,17.97
2024-01-15T02:57:48.216Z,21.03
2024-01-15T03:00:15.928Z,19.23
2024-01-15T03:02:48.786Z,20.27
2024-01-15T03:05:16.626Z,17.50
2024-01-15T03:07:44.780Z,18.63
2024-01-15T03:10:12.081Z,19.57
2024-01-15T03:12:39.292Z,20.40
2024-01-15T03:15:07.149Z,18.80
2024-01-15T03:17:34.544Z,19.97
2024-01-15T03:20:02.095Z,17.23
2024-01-15T03:22:32.342Z,22.10
2024-01-15T03:24:59.635Z,16.63
2024-01-15T03:27:27.459Z,20.07
2024-01-15T03:29:54.817Z,17.60
2024-01-15T03:32:22.140Z,18.53
2024-01-15T03:34:49.800Z,22.43
2024-01-15T03:37:17.199Z,18.67
2024-01-15T03:39:44.492Z,20.07
2024-01-15T03:42:11.721Z,19.77
2024-01-15T03:44:38.960Z,16.63
2024-01-15T03:47:06.218Z,19.83
2024-01-15T03:49:33.681Z,22.00
2024-01-15T03:52:01.065Z,23.37
2024-01-15T03:54:28.312Z,25.90
2024-01-15T03:56:55.602Z,21.53
2024-01-15T03:59:22.816Z,20.10
2024-01-15T04:01:52.128Z,22.10
2024-01-15T04:04:20.003Z,21.07
2024-01-15T04:06:47.651Z,23.13
2024-01-15T04:09:15.542Z,23.70
2024-01-15T04:11:42.939Z,20.90
2024-01-15T04:14:10.260Z,18.57
2024-01-15T04:16:38.978Z,18.50
2024-01-15T04:19:06.576Z,21.30
2024-01-15T04:21:34.049Z,22.80
2024-01-15T04:24:01.359Z,24.20
2024-01-15T04:26:28.674Z,21.23
2024-01-15T04:28:56.015Z,17.83
2024-01-15T04:31:28.419Z,21.93
2024-01-15T04:33:56.411Z,23.77
2024-01-15T04:36:23.827Z,20.83
2024-01-15T04:38:51.181Z,22.03
2024-01-15T04:41:18.548Z,21.13
2024-01-15T04:43:45.861Z,20.57
2024-01-15T04:46:13.201Z,18.63
2024-01-15T04:48:40.554Z,20.00
2024-01-15T04:51:10.707Z,22.37
2024-01-15T04:53:38.157Z,23.60
2024-01-15T04:56:05.867Z,20.90
2024-01-15T04:58:33.156Z,22.07
2024-01-15T05:01:00.564Z,20.23
2024-01-15T05:03:28.172Z,22.50
2024-01-15T05:05:56.478Z,24.50
2024-01-15T05:08:23.800Z,20.00
2024-01-15T05:10:50.979Z,21.27
2024-01-15T05:13:18.184Z,23.23
2024-01-15T05:15:45.352Z,17.77
2024-01-15T05:18:13.997Z,19.57
2024-01-15T05:20:41.320Z,21.37
2024-01-15T05:23:08.516Z,22.27
2024-01-15T05:25:35.821Z,27.43
2024-01-15T05:28:03.502Z,24.83
2024-01-15T05:30:30.830Z,25.27
2024-01-15T05:32:59.042Z,20.77
2024-01-15T05:35:26.287Z,27.50
2024-01-15T05:37:53.637Z,22.73
2024-01-15T05:40:20.909Z,21.97
2024-01-15T05:42:48.324Z,24.27
2024-01-15T05:45:15.791Z,23.57
2024-01-15T05:47:43.114Z,21.33
2024-01-15T05:50:10.703Z,24.43
2024-01-15T05:52:37.992Z,26.00
2024-01-15T05:55:06.175Z,26.93
2024-01-15T05:57:33.449Z,26.93
2024-01-15T06:00:01.631Z,22.23
2024-01-15T06:02:32.064Z,30.90
2024-01-15T06:04:59.360Z,27.13
2024-01-15T06:07:26.729Z,29.00
2024-01-15T06:09:53.996Z,23.03
2024-01-15T06:12:21.255Z,23.53
2024-01-15T06:14:48.603Z,29.13
2024-01-15T06:17:15.948Z,22.30
2024-01-15T06:19:43.233Z,25.03
2024-01-15T06:22:10.454Z,25.97
2024-01-15T06:24:37.935Z,21.10
2024-01-15T06:27:05.318Z,27.23
2024-01-15T06:29:33.498Z,20.20
2024-01-15T06:32:00.753Z,27.63
2024-01-15T06:34:28.051Z,24.17
2024-01-15T06:36:55.710Z,22.77
2024-01-15T06:39:23.076Z,21.73
2024-01-15T06:41:50.363Z,23.27
2024-01-15T06:44:17.796Z,23.57
2024-01-15T06:46:45.354Z,18.90
2024-01-15T06:49:13.614Z,19.53
2024-01-15T06:51:41.391Z,25.07
2024-01-15T06:54:09.047Z,19.83
2024-01-15T06:56:36.704Z,26.23
2024-01-15T06:59:04.185Z,21.47
2024-01-15T07:01:31.777Z,25.73
2024-01-15T07:04:00.297Z,23.57
2024-01-15T07:06:27.800Z,22.33
2024-01-15T07:08:55.025Z,23.90
2024-01-15T07:11:22.245Z,28.13
2024-01-15T07:13:49.740Z,23.27
2024-01-15T07:16:30.109Z,26.63
2024-01-15T07:19:04.195Z,26.90
2024-01-15T07:21:31.548Z,21.27
2024-01-15T07:23:58.811Z,22.03
2024-01-15T07:26:26.680Z,25.10
2024-01-15T07:28:53.981Z,27.60
2024-01-15T07:31:21.316Z,19.67
2024-01-15T07:33:48.881Z,29.10
2024-01-15T07:36:16.480Z,24.83
2024-01-15T07:38:44.331Z,23.60
2024-01-15T07:41:11.619Z,27.10
2024-01-15T07:43:40.172Z,24.80
2024-01-15T07:46:08.567Z,28.13
2024-01-15T07:48:36.328Z,28.50
2024-01-15T07:51:05.375Z,25.37
2024-01-15T07:53:32.580Z,23.53
2024-01-15T07:55:59.968Z,23.07
2024-01-15T07:58:27.247Z,24.20
2024-01-15T08:00:54.620Z,25.40
2024-01-15T08:03:21.943Z,28.77
2024-01-15T08:05:51.995Z,24.40
2024-01-15T08:08:20.103Z,25.57
2024-01-15T08:10:47.448Z,29.03
2024-01-15T08:13:14.673Z,28.30
2024-01-15T08:15:43.927Z,23.00
2024-01-15T08:18:11.353Z,25.23
2024-01-15T08:20:38.848Z,23.97
2024-01-15T08:23:06.221Z,25.67
2024-01-15T08:25:33.543Z,22.70
2024-01-15T08:28:00.953Z,21.80
2024-01-15T08:30:29.477Z,24.57
2024-01-15T08:33:02.374Z,20.33
2024-01-15T08:35:36.666Z,24.43
2024-01-15T08:38:05.158Z,22.60
2024-01-15T08:40:32.478Z,25.40
2024-01-15T08:42:59.855Z,23.30
2024-01-15T08:45:28.288Z,26.57
2024-01-15T08:47:57.260Z,21.50
2024-01-15T08:50:24.512Z,19.37
2024-01-15T08:52:52.005Z,23.17
2024-01-15T08:55:19.600Z,23.80
2024-01-15T08:57:46.958Z,20.27
2024-01-15T09:00:14.719Z,21.93
2024-01-15T09:02:42.030Z,25.30
2024-01-15T09:05:09.899Z,24.17
2024-01-15T09:07:37.396Z,24.90
2024-01-15T09:10:04.937Z,21.27
2024-01-15T09:12:33.147Z,20.27
2024-01-15T09:15:01.020Z,21.13
2024-01-15T09:17:29.630Z,19.97
2024-01-15T09:19:57.308Z,23.23
2024-01-15T09:22:24.688Z,23.55
2024-01-15T09:24:51.962Z,21.70
2024-01-15T09:27:19.285Z,22.33
2024-01-15T09:29:47.478Z,20.33
2024-01-15T09:32:14.811Z,21.63
2024-01-15T09:34:43.063Z,23.00
2024-01-15T09:37:14.732Z,19.77
2024-01-15T09:39:46.304Z,20.90
2024-01-15T09:42:14.466Z,23.80
2024-01-15T09:44:42.677Z,24.27
2024-01-15T09:47:10.495Z,24.10
2024-01-15T09:49:38.830Z,21.70
2024-01-15T09:52:11.785Z,25.00
2024-01-15T09:54:41.584Z,25.17
2024-01-15T09:57:09.117Z,25.27
2024-01-15T09:59:37.826Z,20.63
2024-01-15T10:02:06.957Z,23.40
2024-01-15T10:04:34.476Z,21.93
2024-01-15T10:07:02.493Z,24.20
2024-01-15T10:09:29.946Z,23.10
2024-01-15T10:11:57.273Z,23.57
2024-01-15T10:14:24.646Z,23.37
2024-01-15T10:16:52.103Z,24.47
2024-01-15T10:19:19.555Z,21.63
2024-01-15T10:21:48.313Z,23.63
2024-01-15T10:24:15.779Z,23.53
2024-01-15T10:26:43.018Z,21.43
2024-01-15T10:29:12.128Z,22.57
2024-01-15T10:31:39.636Z,22.73
2024-01-15T10:34:14.668Z,25.23
2024-01-15T10:36:42.614Z,21.40
2024-01-15T10:39:10.065Z,22.17
2024-01-15T10:41:37.454Z,24.83
2024-01-15T10:44:04.982Z,20.55
2024-01-15T10:46:34.126Z,21.40
2024-01-15T10:49:01.824Z,20.47
2024-01-15T10:51:30.172Z,20.30
2024-01-15T10:53:58.665Z,21.23
2024-01-15T10:56:28.988Z,22.55
2024-01-15T10:59:00.476Z,21.87
2024-01-15T11:01:30.952Z,21.55
2024-01-15T11:03:59.572Z,21.10
2024-01-15T11:06:30.400Z,20.97
2024-01-15T11:08:58.307Z,24.50
2024-01-15T11:11:26.799Z,21.47
2024-01-15T11:13:54.226Z,21.80
2024-01-15T11:16:21.490Z,19.98
2024-01-15T11:19:00.702Z,24.07
2024-01-15T11:21:31.233Z,22.38
2024-01-15T11:24:03.085Z,20.40
2024-01-15T11:26:42.134Z,20.23
2024-01-15T11:29:31.014Z,23.77
2024-01-15T11:32:02.270Z,22.13
2024-01-15T11:34:51.826Z,21.60
2024-01-15T11:37:23.204Z,22.63
2024-01-15T11:39:53.685Z,21.58
2024-01-15T11:42:23.246Z,21.13
2024-01-15T11:44:51.225Z,22.48
2024-01-15T11:47:44.058Z,20.67
2024-01-15T11:50:12.945Z,22.50
2024-01-15T11:52:40.507Z,22.33
2024-01-15T11:55:21.026Z,22.43
2024-01-15T11:57:52.226Z,22.27
2024-01-15T12:00:19.967Z,22.03
2024-01-15T12:02:48.677Z,20.57
2024-01-15T12:05:20.541Z,20.10
2024-01-15T12:07:49.220Z,20.77
2024-01-15T12:10:19.341Z,18.75
2024-01-15T12:13:00.617Z,20.40
2024-01-15T12:15:30.838Z,22.10
2024-01-15T12:18:00.076Z,21.87
2024-01-15T12:20:31.642Z,19.10
2024-01-15T12:23:02.457Z,20.50
2024-01-15T12:25:32.842Z,19.47
2024-01-15T12:28:01.705Z,22.80
2024-01-15T12:30:30.414Z,23.13
2024-01-15T12:32:57.860Z,18.80
2024-01-15T12:35:28.667Z,19.35
2024-01-15T12:37:56.849Z,19.47
2024-01-15T12:40:24.921Z,19.70
2024-01-15T12:42:52.321Z,20.58
2024-01-15T12:45:20.688Z,26.30
2024-01-15T12:47:48.526Z,22.02
2024-01-15T12:50:19.452Z,22.17
2024-01-15T12:52:48.453Z,20.23
2024-01-15T12:55:16.619Z,20.00
2024-01-15T12:57:47.025Z,20.40
2024-01-15T13:00:16.350Z,18.33
2024-01-15T13:02:45.125Z,23.83
2024-01-15T13:05:14.845Z,21.25
2024-01-15T13:07:44.253Z,20.13
2024-01-15T13:10:12.520Z,20.38
2024-01-15T13:12:41.649Z,19.47
2024-01-15T13:15:14.684Z,23.00
2024-01-15T13:17:43.978Z,21.50
2024-01-15T13:20:13.814Z,17.80
2024-01-15T13:22:45.452Z,21.20
2024-01-15T13:25:13.373Z,18.67
2024-01-15T13:27:41.869Z,19.70
2024-01-15T13:30:12.002Z,19.77
2024-01-15T13:33:16.990Z,20.25
2024-01-15T13:35:44.454Z,21.23
2024-01-15T13:38:12.441Z,18.67
2024-01-15T13:40:39.736Z,21.33
2024-01-15T13:43:09.651Z,21.92
2024-01-15T13:45:38.735Z,18.25
2024-01-15T13:48:07.004Z,19.10
2024-01-15T13:50:34.413Z,20.63
2024-01-15T13:53:01.582Z,19.43
2024-01-15T13:55:30.370Z,18.67
2024-01-15T13:57:57.865Z,22.23
2024-01-15T14:00:25.338Z,22.50
2024-01-15T14:02:52.629Z,21.90
2024-01-15T14:05:20.201Z,21.75
2024-01-15T14:07:48.519Z,19.40
2024-01-15T14:10:15.910Z,20.13
2024-01-15T14:12:44.980Z,20.90
2024-01-15T14:15:13.191Z,20.10
2024-01-15T14:17:40.758Z,22.65
2024-01-15T14:20:10.554Z,24.73
2024-01-15T14:22:37.826Z,20.85
2024-01-15T14:25:05.761Z,24.07
2024-01-15T14:27:34.099Z,19.73
2024-01-15T14:30:01.997Z,23.02
2024-01-15T14:32:31.951Z,22.73
2024-01-15T14:34:59.369Z,25.13
2024-01-15T14:37:27.235Z,22.35
2024-01-15T14:39:54.687Z,19.65
2024-01-15T14:42:22.119Z,23.83
2024-01-15T14:44:49.487Z,22.17
2024-01-15T14:47:16.837Z,21.80
2024-01-15T14:49:44.131Z,21.25
2024-01-15T14:52:11.440Z,22.30
2024-01-15T14:54:38.850Z,24.23
2024-01-15T14:57:07.572Z,25.00
2024-01-15T14:59:35.004Z,21.35
2024-01-15T15:02:02.398Z,24.60
2024-01-15T15:04:30.006Z,25.27
2024-01-15T15:06:58.296Z,21.73
2024-01-15T15:09:25.721Z,22.48
2024-01-15T15:11:53.368Z,22.67
2024-01-15T15:14:20.573Z,25.60
2024-01-15T15:16:47.892Z,23.43
2024-01-15T15:19:15.226Z,23.20
2024-01-15T15:21:42.618Z,21.10
2024-01-15T15:24:10.310Z,25.25
2024-01-15T15:26:38.053Z,24.23
2024-01-15T15:29:05.701Z,24.40
2024-01-15T15:31:32.983Z,24.73
2024-01-15T15:34:00.538Z,22.33
2024-01-15T15:36:27.768Z,21.77
2024-01-15T15:38:58.446Z,22.43
2024-01-15T15:41:27.190Z,24.90
2024-01-15T15:43:54.863Z,23.05
2024-01-15T15:46:22.607Z,25.20
2024-01-15T15:48:50.062Z,22.13
2024-01-15T15:51:18.634Z,25.87
2024-01-15T15:53:45.998Z,25.95
2024-01-15T15:56:13.224Z,26.50
2024-01-15T15:58:41.379Z,22.80
2024-01-15T16:01:08.726Z,26.45
2024-01-15T16:03:55.060Z,26.10
2024-01-15T16:06:22.535Z,23.73
2024-01-15T16:08:49.861Z,22.60
2024-01-15T16:11:17.246Z,24.70
2024-01-15T16:13:44.955Z,21.07
2024-01-15T16:23:10.155Z,22.27
2024-01-15T16:23:23.148Z,22.75
2024-01-15T16:23:38.174Z,22.40
2024-01-15T16:27:18.804Z,20.27
2024-01-15T16:29:46.623Z,19.63
2024-01-15T16:32:14.266Z,23.97
2024-01-15T16:34:41.748Z,21.07
2024-01-15T16:37:10.522Z,20.07
2024-01-15T16:39:38.034Z,23.55
2024-01-15T16:42:06.823Z,21.33
2024-01-15T16:44:34.257Z,23.48
2024-01-15T16:47:05.086Z,23.13
2024-01-15T16:49:34.004Z,24.30
2024-01-15T16:52:01.813Z,26.55
2024-01-15T16:54:29.278Z,25.35
2024-01-15T16:56:57.519Z,26.13
2024-01-15T16:59:25.057Z,20.85
2024-01-15T17:02:11.054Z,23.60
2024-01-15T17:04:38.328Z,23.43
2024-01-15T17:07:05.550Z,25.17
2024-01-15T17:09:32.746Z,22.63
2024-01-15T17:11:59.944Z,24.87
2024-01-15T17:14:27.246Z,22.77
2024-01-15T17:16:56.683Z,21.75
2024-01-15T17:19:23.978Z,25.83
2024-01-15T17:21:51.326Z,22.35
2024-01-15T17:24:18.565Z,22.23
2024-01-15T17:26:45.876Z,23.43
2024-01-15T17:29:13.415Z,23.95
2024-01-15T17:31:41.098Z,23.88
2024-01-15T17:34:09.138Z,23.13
2024-01-15T17:36:36.395Z,24.25
2024-01-15T17:39:05.100Z,23.35
2024-01-15T17:41:34.293Z,25.45
2024-01-15T17:44:02.557Z,24.90
2024-01-15T17:46:30.418Z,26.63
2024-01-15T17:49:03.911Z,26.47
2024-01-15T17:51:32.938Z,22.97
2024-01-15T17:54:00.491Z,25.35
2024-01-15T17:56:28.227Z,24.23
2024-01-15T17:58:57.090Z,25.25
2024-01-15T18:01:24.513Z,25.30
2024-01-15T18:03:54.816Z,23.63
2024-01-15T18:06:22.759Z,22.03
2024-01-15T18:08:50.322Z,23.47
2024-01-15T18:11:19.451Z,24.95
2024-01-15T18:13:47.597Z,22.20
2024-01-15T18:16:15.320Z,23.80
2024-01-15T18:18:42.886Z,27.40
2024-01-15T18:21:10.222Z,21.53
2024-01-15T18:23:37.576Z,25.97
2024-01-15T18:26:06.312Z,22.23
2024-01-15T18:28:33.604Z,28.07
2024-01-15T18:31:00.861Z,27.97
2024-01-15T18:33:28.202Z,24.87
2024-01-15T18:35:55.569Z,26.50
2024-01-15T18:38:22.947Z,28.03
2024-01-15T18:40:50.446Z,23.87
2024-01-15T18:43:17.672Z,28.93
2024-01-15T18:45:44.999Z,26.13
2024-01-15T18:48:12.435Z,23.10
2024-01-15T18:50:40.726Z,23.43
2024-01-15T18:53:08.151Z,28.53
2024-01-15T18:55:35.468Z,21.98
2024-01-15T18:58:02.732Z,24.50
2024-01-15T19:00:30.053Z,22.57
2024-01-15T19:02:59.340Z,22.35
2024-01-15T19:05:27.036Z,25.08
2024-01-15T19:07:54.879Z,26.00
2024-01-15T19:10:23.228Z,29.15
2024-01-15T19:12:50.520Z,25.63
2024-01-15T19:15:20.995Z,28.07
2024-01-15T19:17:50.258Z,24.67
2024-01-15T19:20:18.612Z,25.07
2024-01-15T19:22:46.816Z,31.80
2024-01-15T19:25:14.316Z,27.13
2024-01-15T19:27:44.754Z,31.50
2024-01-15T19:30:15.417Z,26.97
2024-01-15T19:32:42.922Z,28.43
2024-01-15T19:35:13.975Z,32.83
2024-01-15T19:37:41.365Z,29.10
2024-01-15T19:40:09.189Z,26.07
2024-01-15T19:42:37.395Z,25.40
2024-01-15T19:45:05.979Z,28.20
2024-01-15T19:47:33.675Z,29.50
2024-01-15T19:50:01.232Z,26.17
2024-01-15T19:52:30.334Z,32.03
2024-01-15T19:54:57.684Z,26.70
2024-01-15T19:57:25.074Z,30.60
2024-01-15T19:59:55.844Z,27.87
2024-01-15T20:02:23.140Z,30.27
2024-01-15T20:04:50.427Z,25.23
2024-01-15T20:07:17.670Z,26.97
2024-01-15T20:09:46.119Z,28.13
2024-01-15T20:12:13.476Z,26.53
2024-01-15T20:14:40.730Z,30.00
2024-01-15T20:17:08.225Z,27.50
2024-01-15T20:19:35.725Z,32.33
2024-01-15T20:22:03.155Z,26.97
2024-01-15T20:24:30.574Z,25.57
2024-01-15T20:26:58.706Z,25.83
2024-01-15T20:29:25.935Z,25.43
2024-01-15T20:31:53.552Z,26.30
2024-01-15T20:34:20.858Z,28.63
2024-01-15T20:36:49.035Z,25.83
2024-01-15T20:39:16.361Z,31.25
2024-01-15T20:41:43.691Z,25.10
2024-01-15T20:44:11.044Z,29.25
2024-01-15T20:46:38.231Z,26.77
2024-01-15T20:49:05.545Z,30.83
2024-01-15T20:51:32.763Z,26.60
2024-01-15T20:53:59.982Z,27.50
2024-01-15T20:56:27.149Z,27.52
2024-01-15T20:58:54.394Z,26.88
2024-01-15T21:01:21.670Z,29.70
2024-01-15T21:03:49.079Z,26.02
2024-01-15T21:06:16.613Z,26.87
2024-01-15T21:08:44.568Z,25.35
2024-01-15T21:11:13.686Z,28.63
2024-01-15T21:13:41.268Z,29.52
2024-01-15T21:16:08.722Z,26.42
2024-01-15T21:18:36.221Z,26.90
2024-01-15T21:21:03.803Z,24.83
2024-01-15T21:23:32.648Z,29.83
2024-01-15T21:26:01.105Z,26.55
2024-01-15T21:28:31.400Z,25.83
2024-01-15T21:31:00.982Z,27.10
2024-01-15T21:33:38.156Z,25.85
2024-01-15T21:36:06.383Z,26.45
2024-01-15T21:38:33.724Z,27.60
2024-01-15T21:41:01.099Z,26.15
2024-01-15T21:43:28.422Z,23.13
2024-01-15T21:45:55.658Z,24.75
2024-01-15T21:48:23.106Z,23.75
2024-01-15T21:50:51.115Z,25.10
2024-01-15T21:53:18.385Z,26.10
2024-01-15T21:55:45.692Z,23.52
2024-01-15T21:58:12.963Z,22.92
2024-01-15T22:00:40.918Z,24.30
2024-01-15T22:03:08.187Z,23.77
2024-01-15T22:05:35.473Z,24.45
2024-01-15T22:08:03.122Z,23.88
2024-01-15T22:10:30.473Z,24.20
2024-01-15T22:12:57.737Z,23.52
2024-01-15T22:15:24.904Z,25.55
2024-01-15T22:17:52.275Z,26.92
2024-01-15T22:20:19.704Z,23.55
2024-01-15T22:22:46.973Z,25.80
2024-01-15T22:25:14.172Z,25.77
2024-01-15T22:27:41.427Z,25.27
2024-01-15T22:30:08.914Z,24.77
2024-01-15T22:32:36.268Z,25.23
2024-01-15T22:35:03.923Z,24.48
2024-01-15T22:37:32.539Z,23.77
2024-01-15T22:39:59.815Z,24.75
2024-01-15T22:42:27.777Z,20.58
2024-01-15T22:44:55.123Z,23.45
2024-01-15T22:47:23.097Z,25.10
2024-01-15T22:49:50.458Z,23.15
2024-01-15T22:52:17.771Z,24.95
2024-01-15T22:54:44.951Z,23.67
2024-01-15T22:57:12.326Z,24.58
2024-01-15T22:59:39.504Z,24.23
2024-01-15T23:02:07.968Z,22.73
2024-01-15T23:04:35.156Z,22.23
2024-01-15T23:07:02.312Z,23.67
2024-01-15T23:09:29.656Z,21.95
2024-01-15T23:11:56.894Z,23.83
2024-01-15T23:14:24.211Z,24.33
2024-01-15T23:16:51.485Z,21.65
2024-01-15T23:19:19.205Z,22.88
2024-01-15T23:21:46.961Z,18.85
2024-01-15T23:24:14.113Z,22.13
2024-01-15T23:26:41.393Z,19.60
2024-01-15T23:29:08.802Z,21.13
2024-01-15T23:31:41.033Z,21.73
2024-01-15T23:34:09.982Z,20.38
2024-01-15T23:36:37.903Z,20.70
2024-01-15T23:39:05.046Z,19.67
2024-01-15T23:41:32.691Z,22.65
2024-01-15T23:43:59.924Z,20.98
2024-01-15T23:46:27.056Z,20.55
2024-01-15T23:48:54.246Z,18.83
2024-01-15T23:51:22.710Z,21.92
2024-01-15T23:53:50.133Z,19.10
2024-01-15T23:56:17.488Z,18.75
2024-01-15T23:58:45.582Z,19.83
